Time;durP1;ratioP1;P1;durP2;ratioP2;P2;SDS_P1;SDS_P2;PMS_P1;PMS_P2;Temp;Humidity;BMP_temperature;BMP_pressure;BME280_temperature;BME280_humidity;BME280_pressure;Samples;Min_cycle;Max_cycle;Signal;HPM_P1;HPM_P2
2021/03/02 00:00:27;;;;;;;8.20;5.77;;;21.60;47.30;;;;;;5034941;28;20422;-68
2021/03/02 00:02:53;;;;;;;9.23;6.53;;;21.60;47.30;;;;;;5036131;28;20403;-68
2021/03/02 00:05:18;;;;;;;9.70;6.10;;;21.60;47.40;;;;;;5036185;28;20168;-69
2021/03/02 00:07:44;;;;;;;8.40;5.87;;;21.60;47.40;;;;;;5035969;28;20426;-68
2021/03/02 00:10:12;;;;;;;6.10;5.40;;;21.60;47.40;;;;;;5036092;28;20175;-68
2021/03/02 00:12:40;;;;;;;6.67;5.53;;;21.60;47.40;;;;;;5035992;28;20174;-68
2021/03/02 00:15:07;;;;;;;7.70;5.37;;;21.60;47.40;;;;;;5035974;28;20476;-68
2021/03/02 00:17:51;;;;;;;8.47;6.47;;;21.60;47.40;;;;;;5035814;28;20496;-68
2021/03/02 00:20:24;;;;;;;7.40;4.73;;;21.60;47.40;;;;;;5036188;28;20873;-68
2021/03/02 00:23:13;;;;;;;6.33;5.70;;;21.60;47.40;;;;;;5035849;28;20414;-68
2021/03/02 00:25:46;;;;;;;7.57;5.27;;;21.60;47.40;;;;;;5036153;28;20752;-68
2021/03/02 00:28:12;;;;;;;5.47;4.90;;;21.60;47.40;;;;;;5035711;28;20434;-68
2021/03/02 00:30:39;;;;;;;8.37;5.20;;;21.60;47.50;;;;;;5035688;28;20429;-68
2021/03/02 00:33:06;;;;;;;6.40;5.30;;;21.60;47.50;;;;;;5035590;28;20410;-68
2021/03/02 00:35:32;;;;;;;6.80;5.70;;;21.60;47.50;;;;;;5035856;28;20909;-68
2021/03/02 00:37:58;;;;;;;7.97;5.10;;;21.60;47.50;;;;;;5035269;28;21038;-68
2021/03/02 00:40:27;;;;;;;6.40;5.60;;;21.60;47.50;;;;;;5035484;28;20414;-68
2021/03/02 00:42:53;;;;;;;7.33;5.40;;;21.60;47.50;;;;;;5035461;28;20674;-68
2021/03/02 00:45:19;;;;;;;7.20;5.47;;;21.60;47.50;;;;;;5035383;28;20403;-68
2021/03/02 00:47:45;;;;;;;6.53;4.67;;;21.60;47.50;;;;;;5035324;28;20250;-69
2021/03/02 00:50:11;;;;;;;6.43;5.00;;;21.60;47.50;;;;;;5034910;28;20411;-67
2021/03/02 00:52:40;;;;;;;7.40;5.23;;;21.60;47.50;;;;;;5035528;28;20464;-69
2021/03/02 00:55:08;;;;;;;5.37;4.40;;;21.60;47.60;;;;;;5035198;28;20409;-69
2021/03/02 00:57:34;;;;;;;7.07;6.00;;;21.50;47.50;;;;;;5035038;28;20465;-68
2021/03/02 01:00:00;;;;;;;5.30;4.80;;;21.50;47.50;;;;;;5035129;28;20399;-68
2021/03/02 01:02:25;;;;;;;8.67;5.60;;;21.50;47.50;;;;;;5035096;28;20440;-67
2021/03/02 01:04:51;;;;;;;6.43;4.93;;;21.50;47.50;;;;;;5035082;28;20175;-68
2021/03/02 01:07:17;;;;;;;5.90;5.30;;;21.50;47.50;;;;;;5033612;28;20196;-68
2021/03/02 01:09:42;;;;;;;6.30;4.70;;;21.50;47.50;;;;;;5034968;28;20171;-69
2021/03/02 01:12:08;;;;;;;7.90;5.33;;;21.50;47.60;;;;;;5034937;28;20178;-68
2021/03/02 01:14:34;;;;;;;4.70;4.07;;;21.50;47.60;;;;;;5033544;28;20179;-68
2021/03/02 01:17:00;;;;;;;6.63;5.03;;;21.50;47.60;;;;;;5034872;28;20456;-68
2021/03/02 01:19:25;;;;;;;7.37;5.73;;;21.50;47.60;;;;;;5034753;28;20258;-68
2021/03/02 01:21:51;;;;;;;6.70;5.00;;;21.50;47.60;;;;;;5034726;28;20608;-68
2021/03/02 01:24:17;;;;;;;6.20;5.03;;;21.50;47.60;;;;;;5034673;28;20172;-68
2021/03/02 01:26:42;;;;;;;5.03;4.47;;;21.50;47.60;;;;;;5034655;28;20543;-68
2021/03/02 01:29:09;;;;;;;5.80;4.40;;;21.50;47.60;;;;;;5034498;28;20799;-68
2021/03/02 01:31:34;;;;;;;6.67;4.70;;;21.50;47.60;;;;;;5034556;28;20560;-68
2021/03/02 01:34:00;;;;;;;7.40;5.10;;;21.50;47.60;;;;;;5034459;28;20418;-68
2021/03/02 01:36:26;;;;;;;5.47;4.93;;;21.50;47.60;;;;;;5034305;28;20199;-68
2021/03/02 01:38:51;;;;;;;6.33;4.93;;;21.50;47.60;;;;;;5034516;28;20215;-68
2021/03/02 01:41:17;;;;;;;7.00;5.10;;;21.50;47.70;;;;;;5034306;28;20168;-68
2021/03/02 01:43:43;;;;;;;5.67;5.07;;;21.50;47.60;;;;;;5034304;28;20631;-68
2021/03/02 01:46:09;;;;;;;7.30;4.57;;;21.50;47.60;;;;;;5034245;28;20409;-68
2021/03/02 01:48:37;;;;;;;6.77;5.13;;;21.40;47.60;;;;;;5034729;28;20833;-68
2021/03/02 01:51:08;;;;;;;7.33;4.67;;;21.50;47.70;;;;;;5034138;28;20395;-69
2021/03/02 01:53:33;;;;;;;6.00;4.40;;;21.50;47.60;;;;;;5034255;28;20422;-68
2021/03/02 01:56:00;;;;;;;6.20;4.87;;;21.50;47.70;;;;;;5033971;28;20454;-68
2021/03/02 01:58:26;;;;;;;6.23;4.63;;;21.50;47.70;;;;;;5034102;28;20231;-68
2021/03/02 02:00:58;;;;;;;5.90;4.50;;;21.50;47.70;;;;;;5033645;28;20456;-68
2021/03/02 02:03:30;;;;;;;5.70;4.50;;;21.50;47.70;;;;;;5033979;28;20401;-67
2021/03/02 02:06:04;;;;;;;5.20;4.03;;;21.50;47.70;;;;;;5033919;28;20411;-68
2021/03/02 02:08:53;;;;;;;5.30;4.40;;;21.50;47.70;;;;;;5034104;28;20490;-68
2021/03/02 02:11:27;;;;;;;5.17;4.57;;;21.50;47.70;;;;;;5034084;28;20402;-68
2021/03/02 02:14:11;;;;;;;6.13;4.60;;;21.50;47.70;;;;;;5033905;28;20772;-68
2021/03/02 02:16:39;;;;;;;5.83;4.30;;;21.50;47.70;;;;;;5033660;28;20528;-68
2021/03/02 02:19:11;;;;;;;6.73;4.83;;;21.40;47.70;;;;;;5033603;28;20952;-68
2021/03/02 02:21:49;;;;;;;5.20;3.83;;;21.50;47.70;;;;;;5033827;28;20389;-68
2021/03/02 02:24:22;;;;;;;5.23;4.23;;;21.50;47.70;;;;;;5033894;28;20452;-68
2021/03/02 02:27:00;;;;;;;6.00;4.00;;;21.50;47.70;;;;;;5033581;28;20752;-67
2021/03/02 02:29:32;;;;;;;5.40;3.83;;;21.40;47.70;;;;;;5032214;28;20418;-69
2021/03/02 02:31:58;;;;;;;4.83;4.20;;;21.50;47.70;;;;;;5033430;28;20395;-68
2021/03/02 02:34:26;;;;;;;8.30;4.53;;;21.40;47.70;;;;;;5033405;28;20410;-68
2021/03/02 02:36:54;;;;;;;5.37;4.73;;;21.50;47.70;;;;;;5033114;28;20905;-67
2021/03/02 02:39:21;;;;;;;5.20;4.30;;;21.40;47.70;;;;;;5033642;28;20395;-68
2021/03/02 02:41:48;;;;;;;5.53;4.30;;;21.40;47.70;;;;;;5033294;28;20994;-68
2021/03/02 02:44:16;;;;;;;5.60;4.17;;;21.40;47.70;;;;;;5033815;28;20924;-68
2021/03/02 02:46:43;;;;;;;4.50;3.77;;;21.40;47.70;;;;;;5032060;28;20415;-68
2021/03/02 02:49:11;;;;;;;4.97;3.97;;;21.50;47.80;;;;;;5033196;28;20430;-68
2021/03/02 02:51:38;;;;;;;7.17;4.63;;;21.40;47.70;;;;;;5031943;28;20863;-68
2021/03/02 02:54:05;;;;;;;6.73;4.77;;;21.40;47.70;;;;;;5033159;28;20422;-68
2021/03/02 02:56:33;;;;;;;5.17;4.03;;;21.40;47.70;;;;;;5033309;28;20984;-68
2021/03/02 02:59:02;;;;;;;5.33;4.30;;;21.40;47.70;;;;;;5033011;28;20434;-68
2021/03/02 03:01:31;;;;;;;5.27;4.23;;;21.40;47.70;;;;;;5033328;28;20414;-68
2021/03/02 03:04:02;;;;;;;5.57;4.13;;;21.40;47.70;;;;;;5031831;28;20422;-66
2021/03/02 03:06:30;;;;;;;5.33;4.13;;;21.40;47.70;;;;;;5033022;28;20406;-68
2021/03/02 03:08:58;;;;;;;6.20;4.57;;;21.40;47.70;;;;;;5032927;28;20453;-68
2021/03/02 03:11:34;;;;;;;5.30;4.63;;;21.40;47.70;;;;;;5033000;28;20786;-68
2021/03/02 03:14:00;;;;;;;6.57;4.20;;;21.40;47.70;;;;;;5036101;28;20386;-67
2021/03/02 03:16:27;;;;;;;6.50;4.97;;;21.40;47.70;;;;;;5036984;28;20454;-68
2021/03/02 03:18:56;;;;;;;6.13;4.83;;;21.40;47.60;;;;;;5036960;28;20426;-68
2021/03/02 03:21:23;;;;;;;4.40;4.00;;;21.40;47.50;;;;;;5036974;28;20521;-68
2021/03/02 03:23:50;;;;;;;7.83;4.70;;;21.40;47.50;;;;;;5036957;28;20409;-68
2021/03/02 03:26:20;;;;;;;6.20;4.20;;;21.40;47.50;;;;;;5036846;28;20432;-68
2021/03/02 03:28:48;;;;;;;5.93;4.30;;;21.40;47.60;;;;;;5037050;28;20430;-68
2021/03/02 03:31:16;;;;;;;5.20;4.20;;;21.30;47.50;;;;;;5036825;28;20897;-68
2021/03/02 03:33:42;;;;;;;4.93;4.20;;;21.40;47.60;;;;;;5035465;28;20410;-68
2021/03/02 03:36:10;;;;;;;6.00;4.90;;;21.30;47.60;;;;;;5036684;28;20399;-68
2021/03/02 03:38:36;;;;;;;6.77;4.80;;;21.30;47.60;;;;;;5036448;28;20450;-68
2021/03/02 03:41:02;;;;;;;6.13;3.63;;;21.30;47.70;;;;;;5036631;28;20465;-68
2021/03/02 03:43:28;;;;;;;5.83;3.90;;;21.30;47.70;;;;;;5036862;28;20176;-68
2021/03/02 03:45:53;;;;;;;4.40;4.00;;;21.30;47.70;;;;;;5036492;28;20175;-68
2021/03/02 03:48:19;;;;;;;4.97;4.10;;;21.30;47.70;;;;;;5036403;28;20214;-69
2021/03/02 03:50:45;;;;;;;5.50;4.20;;;21.30;47.70;;;;;;5036502;28;20241;-68
2021/03/02 03:53:14;;;;;;;5.37;4.20;;;21.30;47.70;;;;;;5036417;28;20222;-68
2021/03/02 03:55:42;;;;;;;7.30;4.00;;;21.30;47.70;;;;;;5036393;28;20183;-68
2021/03/02 03:58:13;;;;;;;5.03;3.93;;;21.30;47.70;;;;;;5035004;28;20807;-68
2021/03/02 04:00:40;;;;;;;5.00;4.07;;;21.30;47.70;;;;;;5036582;28;20469;-68
2021/03/02 04:03:07;;;;;;;4.70;4.20;;;21.30;47.80;;;;;;5034997;28;20410;-68
2021/03/02 04:05:33;;;;;;;5.97;5.00;;;21.30;47.80;;;;;;5036217;28;20426;-68
2021/03/02 04:07:59;;;;;;;4.83;4.23;;;21.30;47.80;;;;;;5036010;28;20445;-68
2021/03/02 04:10:26;;;;;;;5.40;3.70;;;21.30;48.30;;;;;;5036090;28;20787;-68
2021/03/02 04:12:52;;;;;;;4.83;4.03;;;21.30;47.80;;;;;;5036265;28;20791;-68
2021/03/02 04:15:17;;;;;;;4.10;3.67;;;21.30;47.80;;;;;;5036292;28;20417;-68
2021/03/02 04:17:55;;;;;;;5.40;4.00;;;21.30;47.80;;;;;;5034534;28;20566;-68
2021/03/02 04:20:21;;;;;;;4.90;3.93;;;21.20;47.70;;;;;;5036241;28;20167;-68
2021/03/02 04:22:46;;;;;;;4.03;3.63;;;21.30;47.80;;;;;;5036320;28;20421;-68
2021/03/02 04:25:13;;;;;;;4.00;3.60;;;21.30;47.80;;;;;;5035052;28;20176;-68
2021/03/02 04:27:39;;;;;;;4.40;4.00;;;21.20;47.70;;;;;;5035816;28;20567;-68
2021/03/02 04:30:06;;;;;;;4.20;3.80;;;21.20;47.70;;;;;;5035758;28;20422;-67
2021/03/02 04:32:32;;;;;;;5.10;3.77;;;21.30;47.80;;;;;;5035970;28;20464;-68
2021/03/02 04:34:58;;;;;;;4.70;3.97;;;21.30;47.80;;;;;;5035718;28;20822;-68
2021/03/02 04:37:23;;;;;;;5.77;5.20;;;21.30;47.80;;;;;;5035447;28;20216;-68
2021/03/02 04:39:49;;;;;;;4.73;3.37;;;21.30;47.80;;;;;;5035648;28;20182;-68
2021/03/02 04:42:14;;;;;;;4.20;3.60;;;21.30;47.80;;;;;;5035501;28;20267;-68
2021/03/02 04:44:40;;;;;;;3.50;3.13;;;21.30;47.90;;;;;;5035566;28;20172;-69
2021/03/02 04:47:06;;;;;;;3.83;3.40;;;21.30;47.90;;;;;;5035668;28;20203;-68
2021/03/02 04:49:31;;;;;;;6.03;3.73;;;21.20;47.80;;;;;;5035325;28;20635;-68
2021/03/02 04:51:57;;;;;;;4.47;4.07;;;21.20;47.80;;;;;;5035305;28;20208;-68
2021/03/02 04:54:25;;;;;;;4.07;3.40;;;21.20;47.80;;;;;;5035307;28;20176;-68
2021/03/02 04:56:50;;;;;;;5.03;3.90;;;21.20;47.80;;;;;;5035346;28;20282;-67
2021/03/02 04:59:16;;;;;;;4.43;3.63;;;21.20;47.90;;;;;;5035138;28;20875;-68
2021/03/02 05:01:42;;;;;;;4.47;3.77;;;21.20;47.80;;;;;;5035137;28;20172;-68
2021/03/02 05:04:07;;;;;;;4.47;4.07;;;21.20;47.80;;;;;;5035113;28;20206;-68
2021/03/02 05:06:33;;;;;;;4.03;3.50;;;21.20;47.90;;;;;;5035024;28;20630;-68
2021/03/02 05:08:58;;;;;;;4.80;4.10;;;21.20;47.90;;;;;;5034950;28;20195;-68
2021/03/02 05:11:24;;;;;;;5.13;3.80;;;21.20;47.90;;;;;;5035208;28;20258;-67
2021/03/02 05:13:49;;;;;;;4.37;3.80;;;21.10;47.80;;;;;;5034872;28;20187;-66
2021/03/02 05:16:15;;;;;;;4.10;3.40;;;21.20;47.90;;;;;;5034728;28;20183;-68
2021/03/02 05:18:41;;;;;;;4.27;3.87;;;21.20;47.90;;;;;;5033467;28;20678;-68
2021/03/02 05:21:07;;;;;;;4.90;3.67;;;21.20;47.90;;;;;;5034729;28;20172;-68
2021/03/02 05:23:34;;;;;;;4.50;3.60;;;21.20;47.90;;;;;;5034731;28;20471;-68
2021/03/02 05:26:00;;;;;;;5.00;4.00;;;21.20;47.90;;;;;;5034620;28;20460;-68
2021/03/02 05:28:25;;;;;;;4.23;3.40;;;21.20;47.90;;;;;;5033331;28;20517;-68
2021/03/02 05:30:52;;;;;;;3.83;3.40;;;21.10;47.80;;;;;;5034588;28;20171;-67
2021/03/02 05:33:17;;;;;;;4.27;3.10;;;21.20;47.90;;;;;;5034503;28;20202;-68
2021/03/02 05:35:43;;;;;;;4.20;3.50;;;21.20;47.80;;;;;;5034237;28;20446;-68
2021/03/02 05:38:09;;;;;;;5.37;3.60;;;21.20;47.80;;;;;;5033605;28;20207;-68
2021/03/02 05:40:38;;;;;;;3.90;2.83;;;21.20;47.80;;;;;;5034680;28;20626;-68
2021/03/02 05:43:04;;;;;;;4.60;3.50;;;21.20;47.80;;;;;;5034329;28;20160;-68
2021/03/02 05:45:29;;;;;;;5.70;4.10;;;21.20;47.60;;;;;;5034760;28;20741;-68
2021/03/02 05:47:55;;;;;;;5.00;3.60;;;21.20;47.50;;;;;;5034141;28;20198;-68
2021/03/02 05:50:21;;;;;;;5.87;3.80;;;21.20;47.50;;;;;;5034193;28;20191;-68
2021/03/02 05:52:47;;;;;;;5.07;3.97;;;21.20;47.50;;;;;;5034240;28;20194;-68
2021/03/02 05:55:14;;;;;;;3.10;2.70;;;21.30;47.50;;;;;;5034589;28;20187;-67
2021/03/02 05:57:41;;;;;;;4.60;3.40;;;21.30;47.50;;;;;;5033799;28;20458;-68
2021/03/02 06:00:07;;;;;;;5.03;3.90;;;21.30;47.50;;;;;;5034062;28;20965;-68
2021/03/02 06:02:33;;;;;;;4.43;3.00;;;21.30;47.50;;;;;;5034429;28;20418;-68
2021/03/02 06:04:58;;;;;;;4.50;3.10;;;21.20;47.40;;;;;;5034122;28;20472;-67
2021/03/02 06:07:24;;;;;;;4.43;3.67;;;21.30;47.50;;;;;;5032592;28;20200;-68
2021/03/02 06:09:50;;;;;;;4.23;3.80;;;21.30;47.50;;;;;;5034118;28;20194;-68
2021/03/02 06:12:16;;;;;;;4.30;3.00;;;21.30;47.50;;;;;;5033809;28;20243;-68
2021/03/02 06:14:42;;;;;;;5.00;3.10;;;21.30;47.40;;;;;;5032473;28;20186;-69
2021/03/02 06:17:07;;;;;;;3.40;3.10;;;21.40;47.50;;;;;;5033552;28;20453;-68
2021/03/02 06:19:46;;;;;;;3.53;3.10;;;21.40;47.50;;;;;;5033704;28;20253;-68
2021/03/02 06:22:34;;;;;;;4.07;3.67;;;21.40;47.50;;;;;;5034169;28;20764;-68
2021/03/02 06:25:01;;;;;;;5.50;3.93;;;21.40;47.40;;;;;;5028371;28;20415;-68
2021/03/02 06:27:27;;;;;;;4.27;3.80;;;21.40;47.50;;;;;;5033714;28;20956;-68
2021/03/02 06:30:15;;;;;;;5.20;4.43;;;21.40;47.50;;;;;;5033478;28;20948;-66
2021/03/02 06:32:45;;;;;;;6.87;4.23;;;21.40;47.50;;;;;;5033545;28;20536;-68
2021/03/02 06:35:12;;;;;;;4.40;3.40;;;21.40;47.50;;;;;;5033396;28;20406;-68
2021/03/02 06:37:46;;;;;;;5.27;4.27;;;21.40;47.50;;;;;;5033298;28;20500;-68
2021/03/02 06:40:13;;;;;;;5.27;4.47;;;21.40;47.50;;;;;;5033310;28;20409;-68
2021/03/02 06:42:43;;;;;;;4.10;3.57;;;21.30;47.40;;;;;;5032145;28;20787;-67
2021/03/02 06:45:13;;;;;;;4.50;4.10;;;21.40;47.50;;;;;;5033374;28;20406;-69
2021/03/02 06:47:41;;;;;;;6.63;4.47;;;21.40;47.40;;;;;;5032713;28;20948;-69
2021/03/02 06:50:12;;;;;;;4.20;3.80;;;21.40;47.40;;;;;;5032970;28;20418;-68
2021/03/02 06:52:40;;;;;;;3.73;3.10;;;21.40;47.40;;;;;;5033065;28;20901;-68
2021/03/02 06:55:15;;;;;;;3.23;2.93;;;21.40;47.40;;;;;;5033187;28;20398;-69
2021/03/02 06:57:44;;;;;;;6.13;3.77;;;21.50;47.40;;;;;;5032870;28;20489;-68
2021/03/02 07:00:11;;;;;;;5.50;3.30;;;21.50;47.50;;;;;;5033266;28;20993;-68
2021/03/02 07:02:41;;;;;;;4.80;3.30;;;21.50;47.50;;;;;;5032985;28;20402;-68
2021/03/02 07:05:16;;;;;;;9.50;4.10;;;21.50;47.50;;;;;;5032950;28;20493;-69
2021/03/02 07:07:47;;;;;;;7.00;3.77;;;21.50;47.50;;;;;;5032981;28;20434;-68
2021/03/02 07:10:14;;;;;;;5.80;4.50;;;21.50;47.50;;;;;;5031554;28;20418;-68
2021/03/02 07:12:41;;;;;;;4.93;3.70;;;21.60;47.50;;;;;;5032924;28;20414;-68
2021/03/02 07:15:08;;;;;;;4.73;4.10;;;21.60;47.50;;;;;;5033241;28;20780;-68
2021/03/02 07:17:39;;;;;;;4.80;3.60;;;21.60;47.50;;;;;;5033750;28;20522;-68
2021/03/02 07:20:09;;;;;;;5.97;4.10;;;21.60;47.40;;;;;;5033656;28;20425;-68
2021/03/02 07:22:37;;;;;;;6.70;3.70;;;21.60;47.40;;;;;;5033417;28;20476;-67
2021/03/02 07:25:05;;;;;;;5.30;3.80;;;21.60;47.40;;;;;;5033393;28;20464;-68
2021/03/02 07:27:34;;;;;;;5.43;3.90;;;21.70;47.40;;;;;;5033311;28;20434;-68
2021/03/02 07:30:00;;;;;;;5.73;4.00;;;21.70;47.40;;;;;;5033486;28;20413;-68
2021/03/02 07:32:28;;;;;;;6.60;3.80;;;21.70;47.40;;;;;;5033133;28;20418;-68
2021/03/02 07:34:56;;;;;;;4.90;4.33;;;21.70;47.40;;;;;;5033513;28;20207;-68
2021/03/02 07:37:23;;;;;;;6.60;4.03;;;21.70;47.40;;;;;;5033017;28;20473;-69
2021/03/02 07:40:03;;;;;;;6.80;4.00;;;21.70;47.40;;;;;;5034734;28;20971;-68
2021/03/02 07:42:28;;;;;;;5.93;3.60;;;21.80;47.40;;;;;;5033028;28;20959;-68
2021/03/02 07:45:11;;;;;;;9.87;3.73;;;21.80;47.40;;;;;;5032825;28;20410;-68
2021/03/02 07:47:54;;;;;;;5.73;4.00;;;21.80;47.40;;;;;;5032882;28;20203;-67
2021/03/02 07:50:27;;;;;;;5.77;3.33;;;21.80;47.40;;;;;;5032776;28;20808;-68
2021/03/02 07:53:21;;;;;;;5.53;3.30;;;21.80;47.50;;;;;;5032771;28;20391;-68
2021/03/02 07:55:47;;;;;;;6.30;3.90;;;21.80;47.40;;;;;;5032907;28;20489;-67
2021/03/02 07:58:17;;;;;;;5.07;3.53;;;21.80;47.50;;;;;;5032689;28;20464;-68
2021/03/02 08:00:46;;;;;;;7.57;3.70;;;21.80;47.50;;;;;;5034994;28;20913;-69
2021/03/02 08:03:20;;;;;;;7.13;4.53;;;21.80;47.50;;;;;;5036429;28;20434;-69
2021/03/02 08:05:47;;;;;;;5.90;3.80;;;21.80;47.40;;;;;;5036284;28;20415;-68
2021/03/02 08:08:25;;;;;;;7.63;4.80;;;21.80;47.50;;;;;;5036138;28;20532;-68
2021/03/02 08:11:02;;;;;;;4.10;3.50;;;21.80;47.40;;;;;;5036503;28;20484;-69
2021/03/02 08:13:38;;;;;;;7.27;3.90;;;21.80;47.50;;;;;;5036151;28;20420;-67
2021/03/02 08:16:06;;;;;;;8.80;4.50;;;21.90;47.50;;;;;;5036408;28;20449;-68
2021/03/02 08:18:34;;;;;;;6.00;4.23;;;21.80;47.50;;;;;;5035999;28;20465;-66
2021/03/02 08:21:11;;;;;;;7.07;3.87;;;21.80;47.50;;;;;;5036118;28;20402;-68
2021/03/02 08:23:56;;;;;;;4.40;3.53;;;21.90;47.50;;;;;;5034941;28;20430;-67
2021/03/02 08:26:30;;;;;;;4.67;3.60;;;21.90;47.50;;;;;;5035909;28;20453;-68
2021/03/02 08:29:07;;;;;;;5.67;3.43;;;21.90;47.60;;;;;;5035743;28;20487;-69
2021/03/02 08:31:34;;;;;;;6.60;3.80;;;21.90;47.60;;;;;;5036363;28;20475;-67
2021/03/02 08:34:01;;;;;;;7.10;4.27;;;21.90;47.60;;;;;;5035780;28;20412;-67
2021/03/02 08:36:28;;;;;;;6.90;4.03;;;21.90;47.60;;;;;;5035947;28;20764;-69
2021/03/02 08:38:54;;;;;;;8.63;5.17;;;21.90;47.60;;;;;;5035483;28;20449;-67
2021/03/02 08:41:31;;;;;;;8.63;5.17;;;21.90;47.60;;;;;;5035544;28;20444;-66
2021/03/02 08:43:57;;;;;;;10.57;7.23;;;21.90;47.60;;;;;;5035448;28;20853;-69
2021/03/02 08:46:28;;;;;;;14.00;7.67;;;21.90;47.60;;;;;;5035339;28;20414;-68
2021/03/02 08:48:54;;;;;;;13.77;7.60;;;21.90;47.60;;;;;;5035323;28;20426;-68
2021/03/02 08:51:21;;;;;;;14.90;7.50;;;21.90;47.60;;;;;;5035369;28;20468;-68
2021/03/02 08:53:49;;;;;;;12.60;7.77;;;21.90;47.60;;;;;;5035494;28;20602;-68
2021/03/02 08:56:27;;;;;;;12.17;7.47;;;22.00;47.70;;;;;;5035101;28;20502;-67
2021/03/02 08:59:16;;;;;;;12.60;7.67;;;22.00;47.60;;;;;;5035169;28;20472;-69
2021/03/02 09:01:42;;;;;;;11.67;7.73;;;22.00;47.70;;;;;;5035190;28;20398;-66
2021/03/02 09:04:12;;;;;;;10.67;6.90;;;22.00;47.70;;;;;;5034088;28;20430;-68
2021/03/02 09:06:40;;;;;;;14.50;8.10;;;22.00;47.70;;;;;;5035571;28;20433;-68
2021/03/02 09:09:20;;;;;;;13.30;8.47;;;22.00;47.70;;;;;;5035102;28;20473;-69
2021/03/02 09:11:53;;;;;;;15.83;7.90;;;22.00;47.70;;;;;;5035107;28;20391;-68
2021/03/02 09:14:28;;;;;;;14.13;8.00;;;22.10;47.70;;;;;;5035192;28;20425;-66
2021/03/02 09:17:02;;;;;;;11.53;6.83;;;22.10;47.80;;;;;;5035720;28;20924;-69
2021/03/02 09:19:41;;;;;;;11.50;6.90;;;22.10;47.70;;;;;;5035257;28;20397;-68
2021/03/02 09:22:15;;;;;;;14.80;6.83;;;22.10;47.70;;;;;;5034100;28;20420;-69
2021/03/02 09:24:44;;;;;;;12.30;7.70;;;22.10;47.70;;;;;;5035569;28;20402;-68
2021/03/02 09:27:11;;;;;;;11.80;6.73;;;22.10;47.70;;;;;;5034786;28;20418;-69
2021/03/02 09:29:43;;;;;;;10.90;7.43;;;22.10;47.70;;;;;;5034763;28;20490;-69
2021/03/02 09:32:11;;;;;;;11.33;6.80;;;22.10;47.70;;;;;;5034877;28;20413;-69
2021/03/02 09:34:39;;;;;;;11.97;7.43;;;22.10;47.70;;;;;;5035042;28;20515;-68
2021/03/02 09:37:10;;;;;;;9.00;6.33;;;22.10;47.70;;;;;;5034607;28;20470;-68
2021/03/02 09:39:37;;;;;;;14.17;8.20;;;22.10;47.70;;;;;;5035131;28;20888;-67
2021/03/02 09:42:25;;;;;;;13.23;7.30;;;22.10;47.70;;;;;;5035037;28;20544;-69
2021/03/02 09:44:53;;;;;;;11.77;6.90;;;22.10;47.70;;;;;;5034645;28;20391;-67
2021/03/02 09:47:31;;;;;;;9.90;7.10;;;22.10;47.70;;;;;;5034445;28;20521;-67
2021/03/02 09:50:12;;;;;;;10.53;6.40;;;22.10;47.70;;;;;;5034966;28;20493;-68
2021/03/02 09:52:48;;;;;;;11.80;6.97;;;22.10;47.70;;;;;;5034553;28;20738;-69
2021/03/02 09:55:23;;;;;;;10.33;7.37;;;22.10;47.70;;;;;;5035020;28;20404;-68
2021/03/02 09:58:17;;;;;;;16.17;7.90;;;22.10;47.70;;;;;;5034405;28;20488;-68
2021/03/02 10:00:46;;;;;;;9.93;6.40;;;22.20;47.80;;;;;;5033284;28;20957;-68
2021/03/02 10:03:21;;;;;;;9.10;6.30;;;22.20;47.80;;;;;;5034155;28;20414;-69
2021/03/02 10:05:56;;;;;;;13.10;7.20;;;22.10;47.70;;;;;;5034079;28;20393;-68
2021/03/02 10:08:25;;;;;;;9.10;6.07;;;22.10;47.70;;;;;;5033955;28;20536;-68
2021/03/02 10:11:14;;;;;;;9.93;6.47;;;22.10;47.70;;;;;;5034380;28;20414;-69
2021/03/02 10:13:46;;;;;;;11.00;6.57;;;22.20;47.90;;;;;;5028786;28;20761;-69
2021/03/02 10:16:16;;;;;;;8.53;5.87;;;22.20;47.80;;;;;;5034116;28;20437;-69
2021/03/02 10:18:57;;;;;;;8.03;6.73;;;22.20;47.80;;;;;;5033806;28;20438;-68
2021/03/02 10:21:25;;;;;;;10.50;7.30;;;22.20;47.80;;;;;;5034163;28;20966;-67
2021/03/02 10:23:53;;;;;;;10.00;6.10;;;22.20;47.80;;;;;;5033128;28;20811;-69
2021/03/02 10:26:21;;;;;;;10.17;6.60;;;22.20;47.80;;;;;;5033689;28;20456;-67
2021/03/02 10:28:47;;;;;;;8.93;6.50;;;22.20;47.80;;;;;;5034331;28;20633;-69
2021/03/02 10:31:16;;;;;;;9.87;6.23;;;22.20;47.80;;;;;;5032021;28;20485;-69
2021/03/02 10:33:42;;;;;;;8.93;6.40;;;22.20;47.80;;;;;;5031505;28;20168;-68
2021/03/02 10:36:18;;;;;;;10.17;6.43;;;22.20;47.80;;;;;;5031547;28;20515;-69
2021/03/02 10:38:43;;;;;;;10.20;6.30;;;22.20;47.80;;;;;;5031427;28;20222;-68
2021/03/02 10:41:09;;;;;;;8.83;5.77;;;22.20;47.80;;;;;;5031889;28;20481;-67
2021/03/02 10:43:38;;;;;;;10.00;6.20;;;22.20;47.80;;;;;;5031708;28;20276;-69
2021/03/02 10:46:04;;;;;;;13.20;6.17;;;22.20;47.80;;;;;;5032222;28;20724;-69
2021/03/02 10:48:29;;;;;;;9.80;6.13;;;22.20;47.80;;;;;;5033633;28;20422;-67
2021/03/02 10:50:55;;;;;;;9.10;6.40;;;22.20;47.80;;;;;;5033057;28;20522;-68
2021/03/02 10:53:20;;;;;;;11.57;6.67;;;22.20;47.80;;;;;;5033740;28;20206;-68
2021/03/02 10:55:46;;;;;;;11.63;7.23;;;22.20;47.80;;;;;;5033685;28;20537;-69
2021/03/02 10:58:11;;;;;;;9.37;5.40;;;22.20;47.80;;;;;;5033988;28;20200;-69
2021/03/02 11:00:37;;;;;;;11.77;6.30;;;22.20;47.80;;;;;;5033383;28;20250;-69
2021/03/02 11:03:03;;;;;;;10.20;6.43;;;22.30;47.90;;;;;;5032116;28;20247;-69
2021/03/02 11:05:29;;;;;;;13.23;6.63;;;22.30;47.90;;;;;;5033143;28;20214;-69
2021/03/02 11:07:58;;;;;;;9.93;6.27;;;22.30;47.90;;;;;;5033161;28;20418;-67
2021/03/02 11:10:25;;;;;;;14.00;6.87;;;22.30;47.90;;;;;;5033025;28;20171;-68
2021/03/02 11:12:50;;;;;;;10.73;6.80;;;22.30;47.90;;;;;;5033118;28;20830;-69
2021/03/02 11:15:16;;;;;;;10.07;5.63;;;22.30;47.90;;;;;;5033000;28;20406;-69
2021/03/02 11:17:42;;;;;;;12.47;5.33;;;22.30;47.90;;;;;;5032954;28;20199;-69
2021/03/02 11:20:07;;;;;;;11.67;6.10;;;22.30;47.90;;;;;;5032856;28;20172;-69
2021/03/02 11:22:33;;;;;;;10.53;6.57;;;22.30;47.90;;;;;;5032877;28;20168;-68
2021/03/02 11:25:02;;;;;;;8.73;6.13;;;22.30;47.90;;;;;;5032878;28;20646;-68
2021/03/02 11:27:28;;;;;;;10.70;6.60;;;22.30;47.90;;;;;;5032983;28;20616;-68
2021/03/02 11:29:54;;;;;;;10.20;6.07;;;22.30;48.00;;;;;;5032930;28;20580;-68
2021/03/02 11:32:19;;;;;;;7.30;5.73;;;22.30;47.90;;;;;;5032930;28;20222;-69
2021/03/02 11:34:45;;;;;;;11.17;5.80;;;22.30;47.90;;;;;;5035396;28;20410;-69
2021/03/02 11:37:11;;;;;;;9.57;6.33;;;22.30;47.90;;;;;;5036687;28;20226;-69
2021/03/02 11:39:37;;;;;;;10.23;6.00;;;22.30;47.90;;;;;;5036797;28;20190;-67
2021/03/02 11:42:03;;;;;;;8.93;6.00;;;22.30;47.90;;;;;;5036850;28;20255;-66
2021/03/02 11:44:30;;;;;;;7.50;5.40;;;22.40;48.00;;;;;;5036826;28;20473;-68
2021/03/02 11:46:56;;;;;;;8.03;6.20;;;22.40;48.00;;;;;;5035550;28;20650;-68
2021/03/02 11:49:22;;;;;;;9.63;5.37;;;22.40;48.00;;;;;;5036589;28;20402;-68
2021/03/02 11:51:48;;;;;;;9.13;5.87;;;22.40;48.00;;;;;;5036505;28;20417;-68
2021/03/02 11:54:13;;;;;;;8.93;5.60;;;22.40;47.90;;;;;;5036426;28;20174;-68
2021/03/02 11:56:39;;;;;;;9.30;5.50;;;22.40;48.00;;;;;;5035035;28;20262;-68
2021/03/02 11:59:04;;;;;;;10.40;5.60;;;22.40;47.90;;;;;;5036361;28;20183;-68
2021/03/02 12:01:30;;;;;;;10.40;5.60;;;22.40;48.00;;;;;;5036275;28;20639;-68
2021/03/02 12:03:55;;;;;;;8.50;5.50;;;22.40;48.00;;;;;;5036253;28;20175;-67
2021/03/02 12:06:21;;;;;;;8.10;5.20;;;22.40;48.00;;;;;;5036431;28;20172;-67
2021/03/02 12:08:46;;;;;;;9.30;5.93;;;22.40;48.00;;;;;;5036195;28;20188;-68
2021/03/02 12:11:16;;;;;;;7.83;5.10;;;22.40;48.00;;;;;;5036170;28;20226;-67
2021/03/02 12:13:41;;;;;;;10.50;5.50;;;22.40;48.00;;;;;;5036076;28;20263;-67
2021/03/02 12:16:07;;;;;;;8.70;5.47;;;22.40;47.90;;;;;;5036022;28;20489;-68
2021/03/02 12:18:32;;;;;;;9.70;5.33;;;22.40;48.00;;;;;;5036107;28;20233;-67
2021/03/02 12:20:58;;;;;;;7.17;5.33;;;22.40;47.90;;;;;;5036040;28;20214;-67
2021/03/02 12:23:24;;;;;;;8.17;5.20;;;22.40;47.90;;;;;;5036100;28;20167;-68
2021/03/02 12:25:49;;;;;;;9.03;5.17;;;22.40;47.90;;;;;;5035869;28;20237;-68
2021/03/02 12:28:15;;;;;;;11.93;5.90;;;22.40;48.00;;;;;;5034282;28;20229;-65
2021/03/02 12:30:41;;;;;;;10.37;5.30;;;22.40;47.90;;;;;;5035672;28;20247;-68
2021/03/02 12:33:07;;;;;;;7.53;5.10;;;22.50;48.00;;;;;;5035691;28;20204;-66
2021/03/02 12:35:32;;;;;;;9.87;5.60;;;22.50;48.00;;;;;;5035648;28;20175;-67
2021/03/02 12:37:58;;;;;;;7.70;5.33;;;22.50;47.90;;;;;;5035364;28;20466;-68
2021/03/02 12:40:24;;;;;;;8.23;5.30;;;22.50;48.00;;;;;;5035458;28;20175;-67
2021/03/02 12:42:49;;;;;;;10.10;5.50;;;22.50;47.90;;;;;;5035493;28;20168;-68
2021/03/02 12:45:16;;;;;;;7.30;5.00;;;22.40;47.80;;;;;;5034729;28;20592;-68
2021/03/02 12:47:42;;;;;;;9.73;6.13;;;22.50;47.90;;;;;;5035165;28;20283;-67
2021/03/02 12:50:08;;;;;;;7.77;5.20;;;22.40;47.80;;;;;;5035375;28;20417;-66
2021/03/02 12:52:35;;;;;;;10.40;5.60;;;22.40;47.80;;;;;;5035279;28;20512;-67